Time;durP1;ratioP1;P1;durP2;ratioP2;P2;SDS_P1;SDS_P2;PMS_P1;PMS_P2;Temp;Humidity;BMP_temperature;BMP_pressure;BME280_temperature;BME280_humidity;BME280_pressure;Samples;Min_cycle;Max_cycle;Signal;HPM_P1;HPM_P2
2022/03/30 00:01:36;;;;;;;17.75;10.50;;;;;;;;;;5093336;28;20023;-68
2022/03/30 00:04:03;;;;;;;17.25;10.15;;;;;;;;;;5092868;28;20028;-69
2022/03/30 00:06:29;;;;;;;20.02;10.38;;;;;;;;;;5091960;28;20056;-67
2022/03/30 00:08:55;;;;;;;24.05;10.13;;;;;;;;;;5093307;28;20076;-67
2022/03/30 00:11:22;;;;;;;17.98;9.60;;;;;;;;;;5092832;28;20028;-67
2022/03/30 00:13:48;;;;;;;17.15;8.07;;;;;;;;;;5108826;28;20020;-68
2022/03/30 00:16:14;;;;;;;18.23;8.45;;;;;;;;;;5093109;28;20402;-67
2022/03/30 00:18:40;;;;;;;21.85;10.65;;;;;;;;;;5108283;28;20028;-68
2022/03/30 00:21:07;;;;;;;28.38;11.65;;;;;;;;;;5092964;28;20020;-67
2022/03/30 00:23:33;;;;;;;19.27;10.52;;;;;;;;;;5093005;28;20032;-67
2022/03/30 00:25:59;;;;;;;21.02;10.13;;;;;;;;;;5095708;28;20069;-67
2022/03/30 00:28:27;;;;;;;15.95;10.05;;;;;;;;;;5095523;28;20123;-67
2022/03/30 00:30:54;;;;;;;17.92;10.75;;;;;;;;;;5095419;28;20451;-67
2022/03/30 00:33:20;;;;;;;21.92;11.15;;;;;;;;;;5096417;28;20058;-67
2022/03/30 00:35:46;;;;;;;21.52;11.45;;;;;;;;;;5096736;28;20017;-67
2022/03/30 00:38:13;;;;;;;24.70;11.63;;;;;;;;;;5096509;28;20051;-67
2022/03/30 00:40:39;;;;;;;20.90;10.25;;;;;;;;;;5096153;28;20066;-67
2022/03/30 00:43:06;;;;;;;19.75;10.65;;;;;;;;;;5095484;28;20054;-67
2022/03/30 00:45:32;;;;;;;23.17;11.27;;;;;;;;;;5096146;28;20095;-67
2022/03/30 00:47:58;;;;;;;18.80;10.57;;;;;;;;;;5096583;28;20047;-67
2022/03/30 00:50:24;;;;;;;17.42;9.57;;;;;;;;;;5095069;28;20020;-67
2022/03/30 00:52:54;;;;;;;16.17;8.70;;;;;;;;;;5095990;28;20044;-67
2022/03/30 00:55:21;;;;;;;16.77;8.93;;;;;;;;;;5096311;28;20060;-67
2022/03/30 00:57:48;;;;;;;18.88;8.27;;;;;;;;;;5096167;28;20024;-67
2022/03/30 01:00:15;;;;;;;22.42;9.20;;;;;;;;;;5096047;28;20035;-67
2022/03/30 01:02:46;;;;;;;19.83;8.75;;;;;;;;;;5111910;28;20020;-67
2022/03/30 01:05:13;;;;;;;19.05;9.68;;;;;;;;;;5096474;28;20078;-68
2022/03/30 01:07:39;;;;;;;16.65;9.23;;;;;;;;;;5095746;28;20442;-68
2022/03/30 01:10:06;;;;;;;25.83;10.77;;;;;;;;;;5111745;28;20031;-68
2022/03/30 01:12:34;;;;;;;15.85;9.32;;;;;;;;;;5096106;28;20069;-66
2022/03/30 01:15:00;;;;;;;18.85;9.75;;;;;;;;;;5095641;28;20013;-66
2022/03/30 01:17:27;;;;;;;18.95;10.35;;;;;;;;;;5111498;28;20023;-66
2022/03/30 01:19:53;;;;;;;19.55;9.18;;;;;;;;;;5094558;28;20028;-66
2022/03/30 01:22:19;;;;;;;17.25;10.65;;;;;;;;;;5095398;28;20107;-66
2022/03/30 01:24:46;;;;;;;16.13;8.45;;;;;;;;;;5094484;28;20047;-66
2022/03/30 01:27:12;;;;;;;17.63;9.32;;;;;;;;;;5095830;28;20016;-66
2022/03/30 01:32:26;;;;;;;17.70;10.70;;;;;;;;;;5095640;28;20043;-66
2022/03/30 01:35:02;;;;;;;19.13;10.18;;;;;;;;;;5095175;28;20043;-67
2022/03/30 01:37:29;;;;;;;16.25;9.25;;;;;;;;;;5095492;28;20051;-67
2022/03/30 01:39:57;;;;;;;18.50;8.85;;;;;;;;;;5111199;28;20016;-67
2022/03/30 01:42:24;;;;;;;19.92;9.57;;;;;;;;;;5110667;28;20024;-66
2022/03/30 01:44:50;;;;;;;17.73;9.07;;;;;;;;;;5095318;28;20499;-67
2022/03/30 01:47:17;;;;;;;19.20;8.50;;;;;;;;;;5095553;28;20499;-67
2022/03/30 01:49:44;;;;;;;16.05;9.18;;;;;;;;;;5110872;28;20456;-67
2022/03/30 01:52:10;;;;;;;13.80;8.27;;;;;;;;;;5095237;28;20392;-67
2022/03/30 01:54:38;;;;;;;18.95;9.13;;;;;;;;;;5110912;28;20024;-66
2022/03/30 01:57:04;;;;;;;17.15;9.57;;;;;;;;;;5110411;28;20103;-67
2022/03/30 01:59:31;;;;;;;17.05;8.65;;;;;;;;;;5110716;28;20039;-66
2022/03/30 02:01:57;;;;;;;16.35;8.52;;;;;;;;;;5095037;28;20020;-67
2022/03/30 02:04:24;;;;;;;15.38;7.65;;;;;;;;;;5094549;28;20097;-66
2022/03/30 02:06:50;;;;;;;;;;;;;;;;;;5110964;28;20089;-66
2022/03/30 02:09:16;;;;;;;;;;;;;;;;;;5095426;28;19912;-66
2022/03/30 02:11:42;;;;;;;;;;;;;;;;;;5093577;28;19910;-66
2022/03/30 02:14:08;;;;;;;;;;;;;;;;;;5095241;28;19908;-66
2022/03/30 02:16:34;;;;;;;;;;;;;;;;;;5095729;28;19904;-66
2022/03/30 02:19:00;;;;;;;;;;;;;;;;;;5093311;28;20007;-67
2022/03/30 02:21:26;;;;;;;;;;;;;;;;;;5095066;28;19954;-66
2022/03/30 02:23:52;;;;;;;;;;;;;;;;;;5094805;28;19911;-67
2022/03/30 02:26:18;;;;;;;;;;;;;;;;;;5094960;28;19926;-67
2022/03/30 02:28:44;;;;;;;;;;;;;;;;;;5093663;28;19911;-67
2022/03/30 02:31:10;;;;;;;;;;;;;;;;;;5093145;28;19904;-67
2022/03/30 02:33:36;;;;;;;;;;;;;;;;;;5094810;28;19911;-67
2022/03/30 02:36:02;;;;;;;;;;;;;;;;;;5093534;28;19939;-67
2022/03/30 02:38:28;;;;;;;;;;;;;;;;;;5094333;28;19961;-67
2022/03/30 02:40:54;;;;;;;;;;;;;;;;;;5093424;28;19904;-67
2022/03/30 02:43:20;;;;;;;;;;;;;;;;;;5094661;28;19908;-67
2022/03/30 02:45:46;;;;;;;;;;;;;;;;;;5094280;28;19904;-67
2022/03/30 02:48:35;;;;;;;;;;;;;;;;;;5094062;28;20341;-67
2022/03/30 02:50:58;;;;;;;;;;;;;;;;;;5094266;28;19911;-67
2022/03/30 02:53:24;;;;;;;;;;;;;;;;;;5093995;28;19904;-67
2022/03/30 02:55:50;;;;;;;;;;;;;;;;;;5093214;28;20415;-67
2022/03/30 02:58:16;;;;;;;;;;;;;;;;;;5094332;28;19958;-67
2022/03/30 03:00:42;;;;;;;;;;;;;;;;;;5092716;28;20276;-67
2022/03/30 03:03:08;;;;;;;;;;;;;;;;;;5092981;28;19904;-67
2022/03/30 03:05:34;;;;;;;;;;;;;;;;;;5093028;28;20367;-67
2022/03/30 03:08:00;;;;;;;;;;;;;;;;;;5093948;28;20003;-67
2022/03/30 03:10:26;;;;;;;;;;;;;;;;;;5094180;28;19904;-67
2022/03/30 03:12:52;;;;;;;;;;;;;;;;;;5094206;28;19904;-67
2022/03/30 03:15:18;;;;;;;;;;;;;;;;;;5093720;28;19904;-66
2022/03/30 03:17:44;;;;;;;;;;;;;;;;;;5092737;28;19908;-67
2022/03/30 03:20:11;;;;;;;;;;;;;;;;;;5092434;28;20280;-67
2022/03/30 03:22:37;;;;;;;;;;;;;;;;;;5092807;28;20253;-67
2022/03/30 03:25:03;;;;;;;;;;;;;;;;;;5094066;28;19914;-67
2022/03/30 03:27:29;;;;;;;;;;;;;;;;;;5092360;28;20286;-66
2022/03/30 03:29:55;;;;;;;;;;;;;;;;;;5093986;28;19943;-67
2022/03/30 03:32:21;;;;;;;;;;;;;;;;;;5093890;28;20014;-67
2022/03/30 03:34:47;;;;;;;;;;;;;;;;;;5093466;28;20310;-67
2022/03/30 03:37:13;;;;;;;;;;;;;;;;;;5092381;28;19939;-67
2022/03/30 03:39:40;;;;;;;;;;;;;;;;;;5094148;28;19997;-68
2022/03/30 03:42:06;;;;;;;;;;;;;;;;;;5093631;28;20421;-67
2022/03/30 03:44:32;;;;;;;;;;;;;;;;;;5092582;28;19904;-67
2022/03/30 03:46:58;;;;;;;;;;;;;;;;;;5092561;28;19904;-68
2022/03/30 03:49:24;;;;;;;;;;;;;;;;;;5092095;28;19908;-67
2022/03/30 03:51:50;;;;;;;;;;;;;;;;;;5093798;28;19911;-67
2022/03/30 03:54:15;;;;;;;;;;;;;;;;;;5093670;28;19987;-67
2022/03/30 03:56:41;;;;;;;;;;;;;;;;;;5092184;28;19911;-67
2022/03/30 03:59:07;;;;;;;;;;;;;;;;;;5092571;28;19955;-67
2022/03/30 04:01:34;;;;;;;;;;;;;;;;;;5096457;28;19960;-67
2022/03/30 04:04:00;;;;;;;;;;;;;;;;;;5097480;28;19904;-67
2022/03/30 04:06:26;;;;;;;;;;;;;;;;;;5096315;28;20271;-67
2022/03/30 04:08:52;;;;;;;;;;;;;;;;;;5097675;28;19904;-67
2022/03/30 04:11:18;;;;;;;;;;;;;;;;;;5097174;28;19904;-67
2022/03/30 04:13:45;;;;;;;;;;;;;;;;;;5096273;28;19904;-67
2022/03/30 04:16:11;;;;;;;;;;;;;;;;;;5097577;28;19918;-67
2022/03/30 04:18:37;;;;;;;;;;;;;;;;;;5097005;28;19912;-67
2022/03/30 04:21:03;;;;;;;;;;;;;;;;;;5096086;28;20362;-71
2022/03/30 04:23:28;;;;;;;;;;;;;;;;;;5097489;28;19911;-73
2022/03/30 04:25:54;;;;;;;;;;;;;;;;;;5096096;28;19904;-73
2022/03/30 04:28:20;;;;;;;;;;;;;;;;;;5097333;28;20275;-74
2022/03/30 04:30:46;;;;;;;;;;;;;;;;;;5095768;28;19970;-73
2022/03/30 04:33:12;;;;;;;;;;;;;;;;;;5095930;28;19915;-73
2022/03/30 04:35:38;;;;;;;;;;;;;;;;;;5097654;28;20280;-73
2022/03/30 04:38:05;;;;;;;;;;;;;;;;;;5096416;28;20015;-73
2022/03/30 04:40:31;;;;;;;;;;;;;;;;;;5097054;28;20348;-73
2022/03/30 04:42:57;;;;;;;;;;;;;;;;;;5097100;28;19911;-73
2022/03/30 04:45:23;;;;;;;;;;;;;;;;;;5096504;28;20337;-73
2022/03/30 04:47:50;;;;;;;;;;;;;;;;;;5096504;28;19904;-72
2022/03/30 04:50:16;;;;;;;;;;;;;;;;;;5096162;28;20246;-73
2022/03/30 04:52:42;;;;;;;;;;;;;;;;;;5096497;28;19986;-73
2022/03/30 04:55:08;;;;;;;;;;;;;;;;;;5097322;28;19904;-73
2022/03/30 04:57:34;;;;;;;;;;;;;;;;;;5096627;28;19906;-72
2022/03/30 05:00:00;;;;;;;;;;;;;;;;;;5095867;28;20042;-73
2022/03/30 05:02:26;;;;;;;;;;;;;;;;;;5097085;28;20364;-73
2022/03/30 05:04:52;;;;;;;;;;;;;;;;;;5096343;28;19931;-73
2022/03/30 05:07:18;;;;;;;;;;;;;;;;;;5095982;28;20348;-72
2022/03/30 05:09:44;;;;;;;;;;;;;;;;;;5095145;28;19911;-72
2022/03/30 05:12:10;;;;;;;;;;;;;;;;;;5096036;28;19904;-72
2022/03/30 05:14:36;;;;;;;;;;;;;;;;;;5095848;28;19972;-72
2022/03/30 05:17:02;;;;;;;;;;;;;;;;;;5095972;28;19915;-73
2022/03/30 05:19:28;;;;;;;;;;;;;;;;;;5096078;28;20229;-73
2022/03/30 05:21:54;;;;;;;;;;;;;;;;;;5095303;28;20364;-72
2022/03/30 05:24:20;;;;;;;;;;;;;;;;;;5094791;28;19915;-71
2022/03/30 05:26:48;;;;;;;;;;;;;;;;;;5094035;28;19931;-75
2022/03/30 05:29:14;;;;;;;;;;;;;;;;;;5092453;28;19952;-73
2022/03/30 05:31:40;;;;;;;;;;;;;;;;;;5083521;28;19993;-73
2022/03/30 05:34:06;;;;;;;;;;;;;;;;;;5094324;28;20372;-73
2022/03/30 05:36:32;;;;;;;;;;;;;;;;;;5094182;28;19918;-73
2022/03/30 05:38:58;;;;;;;;;;;;;;;;;;5094733;28;19929;-74
2022/03/30 05:41:24;;;;;;;;;;;;;;;;;;5093448;28;20272;-74
2022/03/30 05:43:50;;;;;;;;;;;;;;;;;;5093029;28;19904;-76
2022/03/30 05:46:16;;;;;;;;;;;;;;;;;;5083298;28;19999;-74
2022/03/30 05:48:42;;;;;;;;;;;;;;;;;;5073736;28;19990;-73
2022/03/30 05:51:08;;;;;;;;;;;;;;;;;;5073803;28;19948;-76
2022/03/30 05:53:34;;;;;;;;;;;;;;;;;;5085400;28;19909;-73
2022/03/30 05:56:00;;;;;;;;;;;;;;;;;;5079834;28;19907;-78
2022/03/30 05:58:26;;;;;;;;;;;;;;;;;;5095188;28;19927;-73
2022/03/30 06:00:52;;;;;;;;;;;;;;;;;;5077060;28;20241;-70
2022/03/30 06:03:18;;;;;;;;;;;;;;;;;;5088592;28;19908;-69
2022/03/30 06:05:44;;;;;;;;;;;;;;;;;;5094976;28;20308;-69
2022/03/30 06:08:10;;;;;;;;;;;;;;;;;;5094567;28;19908;-69
2022/03/30 06:10:36;;;;;;;;;;;;;;;;;;5092907;28;19995;-69
2022/03/30 06:13:02;;;;;;;;;;;;;;;;;;5093167;28;19938;-70
2022/03/30 06:15:29;;;;;;;;;;;;;;;;;;5091989;28;19911;-70
2022/03/30 06:17:55;;;;;;;;;;;;;;;;;;5091452;28;20314;-68
2022/03/30 06:20:21;;;;;;;;;;;;;;;;;;5093937;28;19912;-69
2022/03/30 06:22:47;;;;;;;;;;;;;;;;;;5092162;28;19904;-69
2022/03/30 06:25:13;;;;;;;;;;;;;;;;;;5086380;28;19943;-71
2022/03/30 06:27:39;;;;;;;;;;;;;;;;;;5079131;28;19908;-68
2022/03/30 06:30:05;;;;;;;;;;;;;;;;;;5081524;28;20356;-73
2022/03/30 06:32:31;;;;;;;;;;;;;;;;;;5091646;28;19904;-75
2022/03/30 06:34:57;;;;;;;;;;;;;;;;;;5085528;28;19916;-74
2022/03/30 06:37:23;;;;;;;;;;;;;;;;;;5077347;28;19919;-71
2022/03/30 06:39:49;;;;;;;;;;;;;;;;;;5093318;28;19930;-73
2022/03/30 06:42:16;;;;;;;;;;;;;;;;;;5087837;28;19939;-72
2022/03/30 06:44:42;;;;;;;;;;;;;;;;;;5086067;28;19908;-74
2022/03/30 06:47:08;;;;;;;;;;;;;;;;;;5091279;28;19911;-72
2022/03/30 06:49:35;;;;;;;;;;;;;;;;;;5093995;28;19904;-73
2022/03/30 06:52:01;;;;;;;;;;;;;;;;;;5091714;28;20367;-74
2022/03/30 06:54:27;;;;;;;;;;;;;;;;;;5082911;28;19962;-72
2022/03/30 06:56:53;;;;;;;;;;;;;;;;;;5083258;28;19993;-72
2022/03/30 06:59:19;;;;;;;;;;;;;;;;;;5082735;28;20356;-72
2022/03/30 07:01:45;;;;;;;;;;;;;;;;;;5091606;28;19904;-73
2022/03/30 07:04:11;;;;;;;;;;;;;;;;;;5092541;28;19904;-72
2022/03/30 07:10:14;;;;;;;;;;;;;;;;;;5092293;28;19904;-71
2022/03/30 07:12:24;;;;;;;;;;;;;;;;;;5050047;28;19984;-71
2022/03/30 07:14:50;;;;;;;;;;;;;;;;;;5084204;28;19904;-70
2022/03/30 07:17:16;;;;;;;;;;;;;;;;;;5091472;28;19956;-70
2022/03/30 07:19:43;;;;;;;;;;;;;;;;;;5092323;28;19999;-72
2022/03/30 07:22:10;;;;;;;;;;;;;;;;;;5091240;28;20030;-70
2022/03/30 07:24:35;;;;;;;;;;;;;;;;;;5091330;28;19918;-71
2022/03/30 07:27:02;;;;;;;;;;;;;;;;;;5091353;28;19999;-72
2022/03/30 07:29:28;;;;;;;;;;;;;;;;;;5088646;28;19965;-70
2022/03/30 07:31:53;;;;;;;;;;;;;;;;;;5089289;28;19908;-72
2022/03/30 07:34:19;;;;;;;;;;;;;;;;;;5090254;28;20364;-72
2022/03/30 07:36:45;;;;;;;;;;;;;;;;;;5090910;28;19957;-70
2022/03/30 07:39:11;;;;;;;;;;;;;;;;;;5091295;28;20090;-71
2022/03/30 07:41:37;;;;;;;;;;;;;;;;;;5089230;28;19994;-69
2022/03/30 07:44:05;;;;;;;;;;;;;;;;;;5091228;28;19915;-69
2022/03/30 07:46:31;;;;;;;;;;;;;;;;;;5092273;28;19912;-70
2022/03/30 07:48:57;;;;;;;;;;;;;;;;;;5090574;28;19904;-68
2022/03/30 07:51:23;;;;;;;;;;;;;;;;;;5090901;28;20545;-70
2022/03/30 07:53:49;;;;;;;;;;;;;;;;;;5092627;28;19904;-69
2022/03/30 07:56:16;;;;;;;;;;;;;;;;;;5092220;28;20045;-69
2022/03/30 07:58:42;;;;;;;;;;;;;;;;;;5089570;28;19984;-69
2022/03/30 08:01:08;;;;;;;;;;;;;;;;;;5089740;28;19916;-70
2022/03/30 08:03:34;;;;;;;;;;;;;;;;;;5090760;28;19975;-69
2022/03/30 08:07:16;;;;;;;;;;;;;;;;;;5088225;27;19917;-68
2022/03/30 08:09:42;;;;;;;;;;;;;;;;;;5086774;28;19919;-70
2022/03/30 08:15:46;;;;;;;;;;;;;;;;;;5088977;27;19919;-71
2022/03/30 08:18:12;;;;;;;;;;;;;;;;;;5089559;28;19912;-70
2022/03/30 08:27:23;;;;;;;;;;;;;;;;;;5110928;27;20422;-69
2022/03/30 08:29:49;;;;;;;;;;;;;;;;;;5110253;28;19995;-69
2022/03/30 08:32:15;;;;;;;;;;;;;;;;;;5110437;28;19912;-70
2022/03/30 08:34:41;;;;;;;;;;;;;;;;;;5110201;28;20386;-69
2022/03/30 08:37:08;;;;;;;;;;;;;;;;;;5109346;28;19965;-69
2022/03/30 08:41:35;;;;;;;;;;;;;;;;;;5110694;27;19916;-68
2022/03/30 08:45:48;;;;;;;;;;;;;;;;;;5160141;27;19915;-70
2022/03/30 08:48:14;;;;;;;;;;;;;;;;;;5151023;27;19911;-70
2022/03/30 08:50:40;;;;;;;;;;;;;;;;;;5132505;27;20106;-66
2022/03/30 08:53:34;;;;;;;;;;;;;;;;;;5090320;27;19912;-68
2022/03/30 08:56:51;;;;;;;;;;;;;;;;;;5089919;27;19939;-68
2022/03/30 08:59:58;;;;;;;;;;;;;;;;;;5127309;27;19915;-69
2022/03/30 09:03:23;;;;;;;;;;;;;;;;;;5088802;27;19923;-67
2022/03/30 09:05:49;;;;;;;;;;;;;;;;;;5087634;28;19912;-68
2022/03/30 09:08:15;;;;;;;;;;;;;;;;;;5085815;28;19909;-66
2022/03/30 09:10:42;;;;;;;;;;;;;;;;;;5089411;28;19912;-69
2022/03/30 09:14:58;;;;;;;;;;;;;;;;;;5127602;27;19922;-69
2022/03/30 09:17:34;;;;;;;;;;;;;;;;;;5087922;27;19913;-68
2022/03/30 09:20:00;;;;;;;;;;;;;;;;;;5087788;28;20007;-69
2022/03/30 09:30:19;;;;;;;;;;;;;;;;;;5087504;28;19919;-69
2022/03/30 09:34:05;;;;;;;;;;;;;;;;;;5168307;27;19926;-68
2022/03/30 09:36:54;;;;;;;;;;;;;;;;;;5087476;27;19918;-69
2022/03/30 09:39:20;;;;;;;;;;;;;;;;;;5087064;28;20299;-68
2022/03/30 09:42:31;;;;;;;;;;;;;;;;;;5109452;27;19920;-69
2022/03/30 09:44:57;;;;;;;;;;;;;;;;;;5103407;28;19962;-69
2022/03/30 09:47:23;;;;;;;;;;;;;;;;;;5090072;28;19912;-68
2022/03/30 09:50:43;;;;;;;;;;;;;;;;;;5111200;27;19916;-69
2022/03/30 09:53:10;;;;;;;;;;;;;;;;;;5109708;28;20010;-69
2022/03/30 09:55:36;;;;;;;;;;;;;;;;;;5108911;28;20383;-69
2022/03/30 09:58:02;;;;;;;;;;;;;;;;;;5109654;28;19912;-68
2022/03/30 10:00:57;;;;;;;;;;;;;;;;;;5107612;27;19921;-68
2022/03/30 10:03:42;;;;;;;;;;;;;;;;;;5088317;28;20315;-69
2022/03/30 10:06:09;;;;;;;;;;;;;;;;;;5088478;28;20012;-68
2022/03/30 10:08:35;;;;;;;;;;;;;;;;;;5087756;28;19912;-67
2022/03/30 10:13:06;;;;;;;;;;;;;;;;;;5109361;27;19916;-68
2022/03/30 10:17:22;;;;;;;;;;;;;;;;;;5109271;27;20410;-67
2022/03/30 10:21:16;;;;;;;;;;;;;;;;;;5090136;27;19923;-68
2022/03/30 10:23:58;;;;;;;;;;;;;;;;;;5134492;27;19912;-67
2022/03/30 10:26:24;;;;;;;;;;;;;;;;;;5128366;28;20371;-68
2022/03/30 10:28:50;;;;;;;;;;;;;;;;;;5111640;28;19965;-68
2022/03/30 10:31:16;;;;;;;;;;;;;;;;;;5109253;28;19915;-68
2022/03/30 10:33:44;;;;;;;;;;;;;;;;;;5129154;28;19912;-68
2022/03/30 10:38:03;;;;;;;;;;;;;;;;;;5167828;27;19941;-69
2022/03/30 10:40:29;;;;;;;;;;;;;;;;;;5162174;27;20442;-71
2022/03/30 10:42:57;;;;;;;;;;;;;;;;;;5151548;27;19908;-70
2022/03/30 10:49:13;;;;;;;;;;;;;;;;;;5109716;27;20022;-72
2022/03/30 10:51:39;;;;;;;;;;;;;;;;;;5092395;28;20407;-72
2022/03/30 10:55:24;;;;;;;;;;;;;;;;;;5111145;27;19916;-70
2022/03/30 10:57:51;;;;;;;;;;;;;;;;;;5110068;28;19918;-70
2022/03/30 11:00:17;;;;;;;;;;;;;;;;;;5125556;28;19940;-71
2022/03/30 11:02:43;;;;;;;;;;;;;;;;;;5129757;28;20578;-70
2022/03/30 11:05:10;;;;;;;;;;;;;;;;;;5131107;27;19914;-72
2022/03/30 11:07:36;;;;;;;;;;;;;;;;;;5131460;28;19957;-72
2022/03/30 11:10:02;;;;;;;;;;;;;;;;;;5131379;27;19942;-72
2022/03/30 11:14:47;;;;;;;;;;;;;;;;;;5082130;27;19943;-71
2022/03/30 11:17:14;;;;;;;;;;;;;;;;;;5070525;28;20007;-70
2022/03/30 11:19:40;;;;;;;;;;;;;;;;;;5070137;28;20360;-72
2022/03/30 11:22:06;;;;;;;;;;;;;;;;;;5069310;28;19919;-72
2022/03/30 11:24:32;;;;;;;;;;;;;;;;;;5068903;28;19909;-72
2022/03/30 11:31:05;;;;;;;;;;;;;;;;;;5109461;27;19916;-69
2022/03/30 11:33:34;;;;;;;;;;;;;;;;;;5107145;28;19923;-71
2022/03/30 11:36:00;;;;;;;;;;;;;;;;;;5107022;28;19916;-71
2022/03/30 11:38:27;;;;;;;;;;;;;;;;;;5107401;28;19908;-73
2022/03/30 11:40:54;;;;;;;;;;;;;;;;;;5106716;28;20589;-70
2022/03/30 11:46:26;;;;;;;;;;;;;;;;;;5109371;28;20383;-71
2022/03/30 11:48:53;;;;;;;;;;;;;;;;;;5108954;28;19922;-72
2022/03/30 11:51:43;;;;;;;;;;;;;;;;;;5110963;27;19922;-72
2022/03/30 11:54:09;;;;;;;;;;;;;;;;;;5110503;28;19912;-71
2022/03/30 11:56:35;;;;;;;;;;;;;;;;;;5111085;28;19909;-70
2022/03/30 12:01:58;;;;;;;;;;;;;;;;;;5131252;27;19912;-72
2022/03/30 12:04:25;;;;;;;;;;;;;;;;;;5131122;28;19912;-71
2022/03/30 12:06:52;;;;;;;;;;;;;;;;;;5131522;28;19962;-69
2022/03/30 12:11:12;;;;;;;;;;;;;;;;;;5152123;27;19915;-72
2022/03/30 12:13:38;;;;;;;;;;;;;;;;;;5151171;27;20275;-72
2022/03/30 12:16:05;;;;;;;;;;;;;;;;;;5152015;27;19907;-70
2022/03/30 12:18:32;;;;;;;;;;;;;;;;;;5150918;27;20256;-71
2022/03/30 12:22:12;;;;;;;;;;;;;;;;;;5151787;27;19911;-71
2022/03/30 12:31:33;;;;;;;;;;;;;;;;;;5131573;27;20286;-69
2022/03/30 12:34:15;;;;;;;;;;;;;;;;;;5131919;27;19912;-68
2022/03/30 12:36:41;;;;;;;;;;;;;;;;;;5124584;28;20303;-70
2022/03/30 12:41:32;;;;;;;;;;;;;;;;;;5151489;27;19911;-68
2022/03/30 12:43:58;;;;;;;;;;;;;;;;;;5152090;27;19915;-68
2022/03/30 12:46:25;;;;;;;;;;;;;;;;;;5151033;27;19912;-70
2022/03/30 12:48:52;;;;;;;;;;;;;;;;;;5152425;27;19908;-71
2022/03/30 12:51:19;;;;;;;;;;;;;;;;;;5150520;27;19911;-71
2022/03/30 12:53:45;;;;;;;;;;;;;;;;;;5151924;27;19915;-71
2022/03/30 12:56:11;;;;;;;;;;;;;;;;;;5143262;27;19920;-71
2022/03/30 13:00:21;;;;;;;;;;;;;;;;;;5109988;27;19938;-67
2022/03/30 13:02:58;;;;;;;;;;;;;;;;;;5109634;27;19923;-67
2022/03/30 13:05:24;;;;;;;;;;;;;;;;;;5108954;28;20371;-68
2022/03/30 13:07:51;;;;;;;;;;;;;;;;;;5108157;28;20002;-68
2022/03/30 13:10:18;;;;;;;;;;;;;;;;;;5109487;28;19908;-67
2022/03/30 13:14:00;;;;;;;;;;;;;;;;;;5109925;27;19922;-67
2022/03/30 13:16:27;;;;;;;;;;;;;;;;;;5111072;28;20002;-67
2022/03/30 13:20:23;;;;;;;;;;;;;;;;;;5111133;27;20402;-66
2022/03/30 13:22:49;;;;;;;;;;;;;;;;;;5111922;28;19943;-66
2022/03/30 13:25:14;;;;;;;;;;;;;;;;;;5111191;28;19908;-66
2022/03/30 13:27:41;;;;;;;;;;;;;;;;;;5111686;28;20276;-66
2022/03/30 13:31:15;;;;;;;;;;;;;;;;;;5153229;27;20353;-66
2022/03/30 13:33:41;;;;;;;;;;;;;;;;;;5152400;27;19915;-67
2022/03/30 13:36:07;;;;;;;;;;;;;;;;;;5152671;27;19929;-66
2022/03/30 13:40:08;;;;;;;;;;;;;;;;;;5091217;27;20387;-67
2022/03/30 13:42:34;;;;;;;;;;;;;;;;;;5091342;28;19917;-66
2022/03/30 13:45:00;;;;;;;;;;;;;;;;;;5091258;28;20417;-68
2022/03/30 13:47:27;;;;;;;;;;;;;;;;;;5089590;28;20007;-68
2022/03/30 13:49:53;;;;;;;;;;;;;;;;;;5091231;28;20326;-68
2022/03/30 13:54:43;;;;;;;;;;;;;;;;;;5070902;28;19916;-66
2022/03/30 13:59:15;;;;;;;;;;;;;;;;;;5152689;27;20001;-67
2022/03/30 14:01:41;;;;;;;;;;;;;;;;;;5152498;27;19954;-67
2022/03/30 14:04:07;;;;;;;;;;;;;;;;;;5134059;27;19907;-67
2022/03/30 14:09:31;;;;;;;;;;;;;;;;;;5111272;27;19913;-66
2022/03/30 14:11:57;;;;;;;;;;;;;;;;;;5111565;28;19916;-66
2022/03/30 14:18:08;;;;;;;;;;;;;;;;;;5091437;27;19913;-67
2022/03/30 14:20:34;;;;;;;;;;;;;;;;;;5091342;28;19982;-67
2022/03/30 14:23:00;;;;;;;;;;;;;;;;;;5089347;28;20356;-67
2022/03/30 14:25:28;;;;;;;;;;;;;;;;;;5089959;28;19965;-67
2022/03/30 14:27:54;;;;;;;;;;;;;;;;;;5091315;28;19908;-69
2022/03/30 14:31:19;;;;;;;;;;;;;;;;;;5153192;27;20447;-66
2022/03/30 14:35:19;;;;;;;;;;;;;;;;;;5152574;27;20006;-68
2022/03/30 14:41:08;;;;;;;;;;;;;;;;;;5110920;27;19918;-67
2022/03/30 14:45:44;;;;;;;;;;;;;;;;;;5111805;27;20295;-67
2022/03/30 14:48:11;;;;;;;;;;;;;;;;;;5111726;28;20007;-67
2022/03/30 14:56:35;;;;;;;;;;;;;;;;;;5104129;27;19917;-66
2022/03/30 14:59:01;;;;;;;;;;;;;;;;;;5091220;28;19920;-65
2022/03/30 15:01:27;;;;;;;;;;;;;;;;;;5089850;28;19915;-66
2022/03/30 15:03:53;;;;;;;;;;;;;;;;;;5089442;28;20284;-66
2022/03/30 15:07:29;;;;;;;;;;;;;;;;;;5111755;27;20287;-66
2022/03/30 15:09:54;;;;;;;;;;;;;;;;;;5111692;28;19994;-66
2022/03/30 15:12:20;;;;;;;;;;;;;;;;;;5109901;28;20003;-67
2022/03/30 15:15:24;;;;;;;;;;;;;;;;;;5091387;27;19923;-67
2022/03/30 15:17:50;;;;;;;;;;;;;;;;;;5090882;28;19912;-67
2022/03/30 15:20:16;;;;;;;;;;;;;;;;;;5089926;28;19916;-67
2022/03/30 15:24:29;;;;;;;;;;;;;;;;;;5111833;27;19922;-66
2022/03/30 15:26:56;;;;;;;;;;;;;;;;;;5109864;28;20390;-67
2022/03/30 15:29:22;;;;;;;;;;;;;;;;;;5110341;28;19908;-67
2022/03/30 15:34:25;;;;;;;;;;;;;;;;;;5112274;27;19916;-67
2022/03/30 15:36:50;;;;;;;;;;;;;;;;;;5110103;28;19912;-67
2022/03/30 15:40:11;;;;;;;;;;;;;;;;;;5089151;27;20373;-66
2022/03/30 15:42:57;;;;;;;;;;;;;;;;;;5111734;27;19926;-67
2022/03/30 15:47:58;;;;;;;;;;;;;;;;;;5090819;27;19913;-66
2022/03/30 15:50:24;;;;;;;;;;;;;;;;;;5091246;28;19916;-68
2022/03/30 15:54:09;;;;;;;;;;;;;;;;;;5111508;27;19912;-67
2022/03/30 15:57:18;;;;;;;;;;;;;;;;;;5111801;27;19916;-66
2022/03/30 15:59:46;;;;;;;;;;;;;;;;;;5111556;28;19912;-68
2022/03/30 16:02:13;;;;;;;;;;;;;;;;;;5111130;28;20383;-68
2022/03/30 16:05:56;;;;;;;;;;;;;;;;;;5111834;27;19922;-68
2022/03/30 16:09:56;;;;;;;;;;;;;;;;;;5112339;27;19922;-66
2022/03/30 16:12:22;;;;;;;;;;;;;;;;;;5111455;28;20007;-66
2022/03/30 16:16:37;;;;;;;;;;;;;;;;;;5071435;28;19912;-68
2022/03/30 16:19:04;;;;;;;;;;;;;;;;;;5069836;28;19917;-68
2022/03/30 16:21:30;;;;;;;;;;;;;;;;;;5070740;28;19915;-67
2022/03/30 16:29:48;;;;;;;;;;;;;;;;;;5111277;27;19916;-67
2022/03/30 16:37:34;;;;;;;;;;;;;;;;;;5112328;27;19922;-66
2022/03/30 16:49:07;;;;;;;;;;;;;;;;;;5111972;27;19923;-68
2022/03/30 16:51:33;;;;;;;;;;;;;;;;;;5111627;28;19994;-66
2022/03/30 16:54:40;;;;;;;;;;;;;;;;;;5111707;27;19916;-68
2022/03/30 16:57:06;;;;;;;;;;;;;;;;;;5110181;28;20325;-68
2022/03/30 16:59:32;;;;;;;;;;;;;;;;;;5111461;28;20003;-68
2022/03/30 17:01:58;;;;;;;;;;;;;;;;;;5111352;28;20003;-68
2022/03/30 17:04:24;;;;;;;;;;;;;;;;;;5111170;28;19955;-68
2022/03/30 17:06:50;;;;;;;;;;;;;;;;;;5111465;28;19912;-66
2022/03/30 17:12:02;;;;;;;;;;;;;;;;;;5111047;28;19955;-69
2022/03/30 17:14:28;;;;;;;;;;;;;;;;;;5111278;28;20016;-67
2022/03/30 17:19:59;;;;;;;;;;;;;;;;;;5112272;27;19922;-67
2022/03/30 17:22:26;;;;;;;;;;;;;;;;;;5110382;28;19912;-68
2022/03/30 17:24:55;;;;;;;;;;;;;;;;;;5111132;28;19994;-67
2022/03/30 17:29:29;;;;;;;;;;;;;;;;;;5112165;27;19922;-66
2022/03/30 17:31:55;;;;;;;;;;;;;;;;;;5110018;28;19995;-67
2022/03/30 17:36:54;;;;;;;;;;;;;;;;;;5091877;27;19923;-68
2022/03/30 17:39:53;;;;;;;;;;;;;;;;;;5131981;27;19915;-67
2022/03/30 17:42:55;;;;;;;;;;;;;;;;;;5070475;28;19935;-67
2022/03/30 17:45:21;;;;;;;;;;;;;;;;;;5069381;28;19913;-68
2022/03/30 17:52:21;;;;;;;;;;;;;;;;;;5111710;28;19927;-67
2022/03/30 17:58:38;;;;;;;;;;;;;;;;;;5112105;27;20006;-67
2022/03/30 18:01:04;;;;;;;;;;;;;;;;;;5111351;28;19973;-67
2022/03/30 18:03:30;;;;;;;;;;;;;;;;;;5093257;28;19908;-67
2022/03/30 18:05:57;;;;;;;;;;;;;;;;;;5111761;28;19919;-67
2022/03/30 18:08:23;;;;;;;;;;;;;;;;;;5111185;28;19919;-67
2022/03/30 18:13:45;;;;;;;;;;;;;;;;;;5091642;27;19913;-66
2022/03/30 18:21:47;;;;;;;;;;;;;;;;;;5090907;27;19919;-66
2022/03/30 18:27:22;;;;;;;;;;;;;;;;;;5091990;27;19919;-67
2022/03/30 18:31:12;;;;;;;;;;;;;;;;;;5111691;27;19922;-68
2022/03/30 18:33:39;;;;;;;;;;;;;;;;;;5110241;28;20289;-68
2022/03/30 18:37:05;;;;;;;;;;;;;;;;;;5091959;27;19919;-66
2022/03/30 18:40:01;;;;;;;;;;;;;;;;;;5090342;27;20277;-69
2022/03/30 18:42:27;;;;;;;;;;;;;;;;;;5089520;28;19995;-66
2022/03/30 18:44:53;;;;;;;;;;;;;;;;;;5089934;28;19996;-67
2022/03/30 18:47:19;;;;;;;;;;;;;;;;;;5089898;28;20275;-67
2022/03/30 18:49:47;;;;;;;;;;;;;;;;;;5090731;28;19909;-68
2022/03/30 18:52:51;;;;;;;;;;;;;;;;;;5112458;27;19923;-66
2022/03/30 18:55:17;;;;;;;;;;;;;;;;;;5110326;28;20007;-67
2022/03/30 18:57:43;;;;;;;;;;;;;;;;;;5111033;28;20340;-67
2022/03/30 19:00:10;;;;;;;;;;;;;;;;;;5111492;28;19908;-68
2022/03/30 19:03:18;;;;;;;;;;;;;;;;;;5111378;28;19930;-66
2022/03/30 19:14:01;;;;;;;;;;;;;;;;;;5111950;27;19912;-67
2022/03/30 19:25:49;;;;;;;;;;;;;;;;;;5111483;27;19922;-67
2022/03/30 19:37:12;;;;;;;;;;;;;;;;;;5112214;27;19917;-68
2022/03/30 19:39:45;;;;;;;;;;;;;;;;;;5111341;27;19915;-67
2022/03/30 19:48:06;;;;;;;;;;;;;;;;;;5109608;27;19916;-66
2022/03/30 19:50:32;;;;;;;;;;;;;;;;;;5108259;28;19912;-66
2022/03/30 19:54:23;;;;;;;;;;;;;;;;;;5089194;27;20439;-67
2022/03/30 19:56:49;;;;;;;;;;;;;;;;;;5089271;28;20442;-68